createdAt,value
2023-04-12T00:01:19.095Z,75.61
2023-04-12T00:03:54.520Z,76.46
2023-04-12T00:06:25.813Z,76.09
2023-04-12T00:09:08.619Z,77.09
2023-04-12T00:11:44.658Z,76.46
2023-04-12T00:14:21.829Z,76.79
2023-04-12T00:16:52.574Z,77.19
2023-04-12T00:19:21.798Z,77.87
2023-04-12T00:21:52.641Z,78.87
2023-04-12T00:24:31.188Z,77.79
2023-04-12T00:27:02.332Z,78.87
2023-04-12T00:29:40.601Z,78.61
2023-04-12T00:32:22.088Z,78.83
2023-04-12T00:34:51.447Z,77.01
2023-04-12T00:37:24.318Z,76.62
2023-04-12T00:40:03.870Z,78.46
2023-04-12T00:42:32.429Z,78.83
2023-04-12T00:45:09.750Z,78.84
2023-04-12T00:47:43.023Z,78.22
2023-04-12T00:50:13.533Z,78.78
2023-04-12T00:52:46.899Z,78.95
2023-04-12T00:55:22.624Z,78.47
2023-04-12T00:58:00.337Z,78.75
2023-04-12T01:00:30.276Z,77.93
2023-04-12T01:03:02.550Z,78.34
2023-04-12T01:05:39.594Z,78.71
2023-04-12T01:08:21.204Z,78.70
2023-04-12T01:11:10.205Z,79.27
2023-04-12T01:13:43.533Z,79.36
2023-04-12T01:16:29.231Z,80.25
2023-04-12T01:19:03.841Z,81.70
2023-04-12T01:21:44.609Z,82.67
2023-04-12T01:24:24.736Z,82.59
2023-04-12T01:27:02.791Z,82.89
2023-04-12T01:29:34.865Z,83.81
2023-04-12T01:32:09.954Z,82.89
2023-04-12T01:34:49.256Z,83.29
2023-04-12T01:37:20.475Z,83.94
2023-04-12T01:39:50.280Z,82.88
2023-04-12T01:42:20.854Z,83.65
2023-04-12T01:44:52.435Z,83.08
2023-04-12T01:47:23.637Z,82.53
2023-04-12T01:50:01.423Z,81.03
2023-04-12T01:52:33.742Z,82.06
2023-04-12T01:55:04.828Z,81.82
2023-04-12T01:57:35.281Z,81.83
2023-04-12T02:00:11.287Z,81.90
2023-04-12T02:02:48.645Z,82.57
2023-04-12T02:05:22.038Z,82.22
2023-04-12T02:07:53.853Z,80.79
2023-04-12T02:10:36.757Z,81.75
2023-04-12T02:13:07.399Z,82.27
2023-04-12T02:15:47.444Z,83.63
2023-04-12T02:18:19.742Z,82.25
2023-04-12T02:20:50.277Z,82.83
2023-04-12T02:23:27.339Z,82.55
2023-04-12T02:25:58.323Z,83.54
2023-04-12T02:28:30.430Z,84.03
2023-04-12T02:31:10.157Z,83.94
2023-04-12T02:33:42.534Z,84.60
2023-04-12T02:36:15.211Z,84.17
2023-04-12T02:38:51.049Z,83.99
2023-04-12T02:41:23.470Z,85.13
2023-04-12T02:43:53.025Z,85.34
2023-04-12T02:46:31.027Z,85.52
2023-04-12T02:49:05.909Z,86.55
2023-04-12T02:51:42.817Z,86.99
2023-04-12T02:54:12.822Z,87.26
2023-04-12T02:57:11.316Z,87.66
2023-04-12T02:59:46.930Z,88.93
2023-04-12T03:02:57.093Z,88.64
2023-04-12T03:05:32.027Z,88.12
2023-04-12T03:08:03.242Z,88.55
2023-04-12T03:10:42.763Z,89.24
2023-04-12T03:13:21.154Z,87.97
2023-04-12T03:15:58.474Z,87.66
2023-04-12T03:18:37.892Z,87.71
2023-04-12T03:21:09.909Z,87.56
2023-04-12T03:23:38.380Z,87.06
2023-04-12T03:26:20.738Z,86.76
2023-04-12T03:29:05.276Z,87.27
2023-04-12T03:31:43.951Z,86.90
2023-04-12T03:34:17.027Z,86.44
2023-04-12T03:36:51.745Z,84.60
2023-04-12T03:39:48.632Z,86.01
2023-04-12T03:42:32.950Z,84.79
2023-04-12T03:45:18.571Z,86.97
2023-04-12T03:47:55.950Z,86.06
2023-04-12T03:50:25.744Z,86.31
2023-04-12T03:52:58.422Z,86.19
2023-04-12T03:55:37.988Z,84.97
2023-04-12T03:58:08.353Z,83.49
2023-04-12T04:00:44.957Z,83.54
2023-04-12T04:03:19.407Z,84.01
2023-04-12T04:06:05.493Z,83.63
2023-04-12T04:08:34.632Z,83.43
2023-04-12T04:11:05.420Z,82.60
2023-04-12T04:13:41.415Z,82.62
2023-04-12T04:16:23.804Z,82.50
2023-04-12T04:18:53.436Z,81.18
2023-04-12T04:21:30.886Z,81.61
2023-04-12T04:24:04.957Z,80.95
2023-04-12T04:26:39.414Z,80.71
2023-04-12T04:29:28.168Z,81.31
2023-04-12T04:32:25.284Z,81.52
2023-04-12T04:35:16.901Z,80.89
2023-04-12T04:38:30.832Z,80.07
2023-04-12T04:41:09.212Z,81.07
2023-04-12T04:44:03.696Z,80.49
2023-04-12T04:47:01.100Z,80.52
2023-04-12T04:49:33.967Z,80.23
2023-04-12T04:52:23.400Z,80.97
2023-04-12T04:55:17.176Z,79.70
2023-04-12T04:57:52.927Z,80.42
2023-04-12T05:00:30.657Z,79.86
2023-04-12T05:03:03.691Z,81.41
2023-04-12T05:05:33.634Z,81.02
2023-04-12T05:08:10.067Z,81.54
2023-04-12T05:10:48.848Z,81.55
2023-04-12T05:13:19.757Z,81.46
2023-04-12T05:15:49.715Z,80.28
2023-04-12T05:18:27.232Z,80.69
2023-04-12T05:21:01.961Z,81.13
2023-04-12T05:23:38.715Z,80.38
2023-04-12T05:26:21.815Z,79.68
2023-04-12T05:28:53.406Z,79.53
2023-04-12T05:31:25.984Z,79.14
2023-04-12T05:33:57.050Z,78.94
2023-04-12T05:36:42.567Z,78.44
2023-04-12T05:39:20.858Z,77.38
2023-04-12T05:42:07.103Z,75.70
2023-04-12T05:44:41.787Z,76.13
2023-04-12T05:47:18.080Z,75.50
2023-04-12T05:49:50.117Z,74.59
2023-04-12T05:52:29.205Z,75.18
2023-04-12T05:54:58.841Z,75.30
2023-04-12T05:57:38.258Z,72.97
2023-04-12T06:00:13.484Z,74.02
2023-04-12T06:02:47.179Z,75.07
2023-04-12T06:05:21.976Z,75.20
2023-04-12T06:07:52.703Z,75.01
2023-04-12T06:10:26.561Z,75.85
2023-04-12T06:13:05.130Z,75.19
2023-04-12T06:15:37.262Z,75.03
2023-04-12T06:18:10.397Z,74.49
2023-04-12T06:20:49.266Z,74.39
2023-04-12T06:23:23.348Z,72.71
2023-04-12T06:25:56.664Z,72.98
2023-04-12T06:28:35.136Z,72.42
2023-04-12T06:31:12.412Z,71.80
2023-04-12T06:33:49.717Z,71.12
2023-04-12T06:36:21.630Z,70.02
2023-04-12T06:38:59.493Z,68.47
2023-04-12T06:41:28.717Z,68.51
2023-04-12T06:44:06.239Z,68.73
2023-04-12T06:46:37.444Z,68.26
2023-04-12T06:49:09.092Z,68.30
2023-04-12T06:51:53.735Z,67.65
2023-04-12T06:54:29.821Z,67.95
2023-04-12T06:56:59.101Z,67.90
2023-04-12T06:59:32.958Z,66.97
2023-04-12T07:02:10.156Z,67.43
2023-04-12T07:04:41.199Z,67.25
2023-04-12T07:07:11.493Z,66.63
2023-04-12T07:09:47.515Z,65.38
2023-04-12T07:12:18.320Z,65.61
2023-04-12T07:14:52.722Z,66.38
2023-04-12T07:17:22.616Z,66.20
2023-04-12T07:19:56.464Z,65.27
2023-04-12T07:22:26.180Z,65.65
2023-04-12T07:25:07.544Z,65.31
2023-04-12T07:27:41.608Z,65.36
2023-04-12T07:30:19.562Z,64.14
2023-04-12T07:32:51.831Z,65.10
2023-04-12T07:35:20.689Z,64.64
2023-04-12T07:37:54.397Z,64.32
2023-04-12T07:40:32.075Z,63.33
2023-04-12T07:43:01.708Z,62.99
2023-04-12T07:45:32.180Z,63.03
2023-04-12T07:48:02.945Z,61.61
2023-04-12T07:50:42.092Z,59.90
2023-04-12T07:53:23.026Z,58.55
2023-04-12T07:55:57.120Z,59.18
2023-04-12T07:58:34.851Z,59.41
2023-04-12T08:01:10.444Z,59.62
2023-04-12T08:03:43.277Z,59.05
2023-04-12T08:06:12.601Z,58.56
2023-04-12T08:08:44.184Z,57.18
2023-04-12T08:11:23.088Z,55.86
2023-04-12T08:13:53.810Z,55.75
2023-04-12T08:16:39.585Z,55.02
2023-04-12T08:19:10.763Z,54.33
2023-04-12T08:21:42.063Z,53.87
2023-04-12T08:24:13.207Z,53.33
2023-04-12T08:26:46.200Z,53.25
2023-04-12T08:29:26.304Z,50.69
2023-04-12T08:32:00.859Z,51.21
2023-04-12T08:34:30.194Z,50.91
2023-04-12T08:37:01.529Z,49.92
2023-04-12T08:39:32.983Z,50.14
2023-04-12T08:42:06.851Z,49.34
2023-04-12T08:44:40.385Z,50.21
2023-04-12T08:47:25.927Z,50.38
2023-04-12T08:49:55.167Z,51.19
2023-04-12T08:52:35.701Z,49.43
2023-04-12T08:55:05.292Z,49.26
2023-04-12T08:57:36.789Z,49.69
2023-04-12T09:00:21.023Z,49.94
2023-04-12T09:03:08.766Z,49.39
2023-04-12T09:05:49.240Z,48.67
2023-04-12T09:08:21.006Z,48.53
2023-04-12T09:10:49.734Z,47.09
2023-04-12T09:13:20.120Z,46.76
2023-04-12T09:15:51.884Z,47.24
2023-04-12T09:18:30.013Z,47.19
2023-04-12T09:21:09.390Z,46.05
2023-04-12T09:23:41.138Z,45.30
2023-04-12T09:26:18.611Z,44.83
2023-04-12T09:28:47.988Z,43.79
2023-04-12T09:31:18.644Z,43.32
2023-04-12T09:33:55.890Z,42.33
2023-04-12T09:36:55.347Z,40.85
2023-04-12T09:39:34.357Z,40.96
2023-04-12T09:42:18.050Z,40.51
2023-04-12T09:45:05.224Z,40.04
2023-04-12T09:47:47.893Z,39.04
2023-04-12T09:50:26.130Z,39.17
2023-04-12T09:52:56.074Z,39.20
2023-04-12T09:55:28.730Z,38.68
2023-04-12T09:57:58.144Z,38.39
2023-04-12T10:00:32.748Z,37.58
2023-04-12T10:03:03.204Z,36.83
2023-04-12T10:05:37.742Z,36.09
2023-04-12T10:08:09.560Z,36.31
2023-04-12T10:10:51.387Z,36.93
2023-04-12T10:13:32.066Z,37.32
2023-04-12T10:16:03.882Z,37.18
2023-04-12T10:18:45.149Z,37.39
2023-04-12T10:21:20.398Z,38.05
2023-04-12T10:23:48.981Z,38.45
2023-04-12T10:26:21.085Z,39.59
2023-04-12T10:29:32.428Z,40.62
2023-04-12T10:32:22.583Z,39.89
2023-04-12T10:34:56.075Z,39.61
2023-04-12T10:38:10.015Z,39.59
2023-04-12T10:40:53.071Z,40.01
2023-04-12T10:43:32.895Z,39.41
2023-04-12T10:46:11.272Z,39.47
2023-04-12T10:48:52.091Z,39.03
2023-04-12T10:51:29.439Z,38.14
2023-04-12T10:54:48.338Z,37.62
2023-04-12T10:57:51.959Z,37.56
2023-04-12T11:00:24.999Z,36.31
2023-04-12T11:03:07.644Z,35.00
2023-04-12T11:06:06.756Z,35.19
2023-04-12T11:09:08.737Z,35.43
2023-04-12T11:11:49.952Z,34.81
2023-04-12T11:14:27.413Z,34.63
2023-04-12T11:17:30.312Z,34.39
2023-04-12T11:20:08.412Z,34.55
2023-04-12T11:22:38.038Z,34.81
2023-04-12T11:25:20.547Z,34.30
2023-04-12T11:28:00.666Z,34.14
2023-04-12T11:30:34.074Z,33.96
2023-04-12T11:33:09.198Z,33.54
2023-04-12T11:35:40.756Z,34.26
2023-04-12T11:38:11.548Z,34.06
2023-04-12T11:40:42.812Z,33.74
2023-04-12T11:43:23.158Z,32.83
2023-04-12T11:46:11.859Z,32.37
2023-04-12T11:48:45.988Z,32.53
2023-04-12T11:51:32.366Z,31.60
2023-04-12T11:54:05.468Z,31.58
2023-04-12T11:56:38.301Z,31.27
2023-04-12T11:59:13.351Z,30.64
2023-04-12T12:01:51.449Z,30.86
2023-04-12T12:04:22.551Z,31.45
2023-04-12T12:06:51.509Z,31.72
2023-04-12T12:09:23.776Z,31.77
2023-04-12T12:12:05.821Z,31.69
2023-04-12T12:14:37.272Z,32.11
2023-04-12T12:17:11.735Z,31.92
2023-04-12T12:19:55.116Z,31.73
2023-04-12T12:22:24.350Z,31.95
2023-04-12T12:25:01.589Z,31.86
2023-04-12T12:27:37.952Z,31.94
2023-04-12T12:30:19.873Z,31.78
2023-04-12T12:32:52.379Z,31.50
2023-04-12T12:35:22.562Z,31.43
2023-04-12T12:38:03.275Z,31.78
2023-04-12T12:40:33.977Z,31.57
2023-04-12T12:43:06.971Z,31.53
2023-04-12T12:45:51.484Z,32.06
2023-04-12T12:48:23.490Z,32.79
2023-04-12T12:50:51.978Z,32.59
2023-04-12T12:53:24.487Z,33.05
2023-04-12T12:56:00.554Z,33.96
2023-04-12T12:58:43.684Z,33.38
2023-04-12T13:01:18.441Z,33.55
2023-04-12T13:03:51.223Z,33.61
2023-04-12T13:06:24.460Z,33.84
2023-04-12T13:08:55.376Z,33.55
2023-04-12T13:11:32.614Z,34.33
2023-04-12T13:14:22.979Z,34.71
2023-04-12T13:16:55.067Z,34.66
2023-04-12T13:19:29.354Z,34.97
2023-04-12T13:22:08.265Z,34.92
2023-04-12T13:24:50.556Z,35.59
2023-04-12T13:27:22.464Z,35.67
2023-04-12T13:29:59.869Z,35.67
2023-04-12T13:32:36.878Z,35.69
2023-04-12T13:35:11.459Z,36.28
2023-04-12T13:37:39.662Z,36.38
2023-04-12T13:40:12.868Z,36.21
2023-04-12T13:42:44.327Z,36.53
2023-04-12T13:45:14.214Z,36.05
2023-04-12T13:47:45.567Z,36.70
2023-04-12T13:50:18.327Z,36.70
2023-04-12T13:52:49.394Z,36.82
2023-04-12T13:55:21.684Z,36.77
2023-04-12T13:57:51.081Z,36.94
2023-04-12T14:00:29.657Z,37.51
2023-04-12T14:03:09.379Z,37.59
2023-04-12T14:05:40.548Z,37.67
2023-04-12T14:08:17.384Z,37.45
2023-04-12T14:10:50.504Z,37.48
2023-04-12T14:13:22.403Z,37.88
2023-04-12T14:16:00.032Z,37.73
2023-04-12T14:18:31.001Z,37.98
2023-04-12T14:21:03.827Z,38.21
2023-04-12T14:23:44.455Z,38.29
2023-04-12T14:26:17.679Z,38.45
2023-04-12T14:29:02.990Z,38.53
2023-04-12T14:31:37.107Z,38.62
2023-04-12T14:34:10.833Z,39.04
2023-04-12T14:36:42.639Z,39.34
2023-04-12T14:39:25.843Z,39.50
2023-04-12T14:41:57.358Z,39.84
2023-04-12T14:44:34.980Z,39.57
2023-04-12T14:47:07.148Z,39.97
2023-04-12T14:49:52.893Z,40.19
2023-04-12T14:52:26.179Z,40.18
2023-04-12T14:54:54.674Z,40.13
2023-04-12T14:57:39.216Z,40.02
2023-04-12T15:00:24.675Z,39.87
2023-04-12T15:02:56.068Z,40.07
2023-04-12T15:05:27.852Z,39.96
2023-04-12T15:08:05.419Z,39.50
2023-04-12T15:10:43.604Z,39.20
2023-04-12T15:13:18.070Z,39.02
2023-04-12T15:15:55.359Z,39.16
2023-04-12T15:18:28.155Z,39.45
2023-04-12T15:21:08.365Z,39.14
2023-04-12T15:23:40.043Z,39.48
2023-04-12T15:26:09.114Z,39.09
2023-04-12T15:28:50.902Z,38.98
2023-04-12T15:31:25.128Z,39.07
2023-04-12T15:34:02.693Z,38.73
2023-04-12T15:36:38.818Z,38.47
2023-04-12T15:39:11.088Z,38.68
2023-04-12T15:41:46.553Z,39.33
2023-04-12T15:44:17.137Z,39.60
2023-04-12T15:46:53.349Z,40.12
2023-04-12T15:49:30.471Z,40.70
2023-04-12T15:52:05.097Z,41.05
2023-04-12T15:54:34.123Z,41.25
2023-04-12T15:57:09.833Z,41.66
2023-04-12T15:59:44.087Z,42.24
2023-04-12T16:02:12.309Z,42.49
2023-04-12T16:04:44.523Z,42.74
2023-04-12T16:07:19.779Z,43.12
2023-04-12T16:09:50.349Z,43.45
2023-04-12T16:12:20.430Z,43.64
2023-04-12T16:14:52.028Z,43.90
2023-04-12T16:17:22.820Z,44.40
2023-04-12T16:20:00.976Z,44.77
2023-04-12T16:22:41.270Z,44.78
2023-04-12T16:25:14.571Z,45.06
2023-04-12T16:27:51.045Z,45.45
2023-04-12T16:30:28.527Z,45.41
2023-04-12T16:32:59.345Z,46.07
2023-04-12T16:35:31.269Z,46.21
2023-04-12T16:38:02.508Z,46.67
2023-04-12T16:40:38.994Z,46.53
2023-04-12T16:43:15.567Z,46.72
2023-04-12T16:45:47.729Z,47.12
2023-04-12T16:48:22.648Z,47.40
2023-04-12T16:50:54.450Z,47.53
2023-04-12T16:53:30.760Z,47.44
2023-04-12T16:56:10.570Z,47.49
2023-04-12T16:58:41.326Z,47.64
2023-04-12T17:01:22.309Z,47.87
2023-04-12T17:03:53.394Z,48.04
2023-04-12T17:06:23.481Z,48.16
2023-04-12T17:09:10.149Z,48.12
2023-04-12T17:11:43.468Z,48.31
2023-04-12T17:14:17.180Z,48.34
2023-04-12T17:16:58.052Z,48.67
2023-04-12T17:19:27.033Z,48.78
2023-04-12T17:24:43.696Z,49.16
2023-04-12T17:27:18.074Z,49.16
2023-04-12T17:30:05.553Z,49.32
2023-04-12T17:32:49.509Z,49.33
2023-04-12T17:35:22.801Z,49.16
2023-04-12T17:37:58.495Z,49.55
2023-04-12T17:40:56.682Z,49.50
2023-04-12T17:43:33.697Z,49.86
2023-04-12T17:46:11.211Z,49.84
2023-04-12T17:48:42.673Z,49.98
2023-04-12T17:51:20.888Z,49.97
2023-04-12T17:53:50.545Z,49.89
2023-04-12T17:56:25.546Z,49.99
2023-04-12T17:59:02.666Z,50.47
2023-04-12T18:01:44.900Z,50.65
2023-04-12T18:04:20.861Z,51.00
2023-04-12T18:06:52.696Z,50.64
2023-04-12T18:09:26.892Z,50.69
2023-04-12T18:12:04.639Z,50.65
2023-04-12T18:14:50.698Z,51.17
2023-04-12T18:17:27.453Z,51.29
2023-04-12T18:20:02.837Z,51.39
2023-04-12T18:22:36.580Z,51.16
2023-04-12T18:25:19.251Z,51.39
2023-04-12T18:28:13.787Z,51.48
2023-04-12T18:31:00.691Z,51.91
2023-04-12T18:33:40.031Z,51.94
2023-04-12T18:36:14.289Z,52.01
2023-04-12T18:39:01.533Z,52.13
2023-04-12T18:41:49.581Z,52.62
2023-04-12T18:44:23.086Z,52.57
2023-04-12T18:46:54.368Z,52.72
2023-04-12T18:49:25.304Z,53.07
2023-04-12T18:52:07.799Z,53.04
2023-04-12T18:54:49.649Z,53.36
2023-04-12T18:57:31.193Z,53.31
2023-04-12T19:00:21.746Z,53.23
2023-04-12T19:03:08.640Z,53.75
2023-04-12T19:05:46.664Z,53.58
2023-04-12T19:08:22.981Z,53.70
2023-04-12T19:10:53.561Z,54.18
2023-04-12T19:13:35.373Z,54.07
2023-04-12T19:16:20.440Z,54.48
2023-04-12T19:19:01.758Z,54.51
2023-04-12T19:21:44.121Z,54.86
2023-04-12T19:24:24.226Z,55.68
2023-04-12T19:30:00.978Z,56.40
2023-04-12T19:32:33.038Z,56.57
2023-04-12T19:35:10.257Z,56.55
2023-04-12T19:37:43.208Z,56.62
2023-04-12T19:40:23.437Z,56.50
2023-04-12T19:43:13.331Z,56.60
2023-04-12T19:46:02.711Z,56.89
2023-04-12T19:48:39.848Z,57.04
2023-04-12T19:51:12.528Z,57.71
2023-04-12T19:53:48.597Z,57.46
2023-04-12T19:56:26.685Z,58.17
2023-04-12T19:59:07.064Z,57.76
2023-04-12T20:01:50.693Z,57.89
2023-04-12T20:07:29.435Z,58.34
2023-04-12T20:10:10.854Z,58.30
2023-04-12T20:12:48.145Z,58.60
2023-04-12T20:15:24.127Z,58.54
2023-04-12T20:17:53.368Z,58.77
2023-04-12T20:20:32.854Z,58.95
2023-04-12T20:23:05.955Z,58.85
2023-04-12T20:25:39.837Z,59.40
2023-04-12T20:28:12.831Z,59.81
2023-04-12T20:30:54.003Z,59.79
2023-04-12T20:33:29.073Z,60.07
2023-04-12T20:36:07.799Z,59.99
2023-04-12T20:38:37.310Z,60.79
2023-04-12T20:41:17.670Z,60.70
2023-04-12T20:43:59.821Z,60.52
2023-04-12T20:46:50.806Z,61.06
2023-04-12T20:49:37.162Z,61.17
2023-04-12T20:52:13.071Z,61.30
2023-04-12T20:54:59.278Z,61.61
2023-04-12T20:57:46.720Z,61.86
2023-04-12T21:00:23.834Z,62.42
2023-04-12T21:02:58.834Z,62.31
2023-04-12T21:05:41.021Z,62.67
2023-04-12T21:08:17.740Z,62.27
2023-04-12T21:10:48.818Z,62.45
2023-04-12T21:13:22.829Z,62.32
2023-04-12T21:15:52.597Z,62.52
2023-04-12T21:18:32.385Z,62.84
2023-04-12T21:21:08.129Z,62.78
2023-04-12T21:23:41.776Z,62.82
2023-04-12T21:26:18.511Z,62.82
2023-04-12T21:28:50.034Z,62.87
2023-04-12T21:31:21.945Z,62.82
2023-04-12T21:34:02.893Z,63.07
2023-04-12T21:36:33.456Z,62.85
2023-04-12T21:39:13.331Z,62.92
2023-04-12T21:41:44.578Z,63.26
2023-04-12T21:44:17.093Z,63.35
2023-04-12T21:46:47.239Z,64.10
2023-04-12T21:49:29.165Z,63.67
2023-04-12T21:52:02.854Z,63.76
2023-04-12T21:54:39.521Z,63.86
2023-04-12T21:57:09.910Z,63.98
2023-04-12T21:59:41.784Z,64.73
2023-04-12T22:02:17.557Z,64.58
2023-04-12T22:05:03.021Z,65.14
2023-04-12T22:07:35.488Z,64.93
2023-04-12T22:10:08.149Z,65.25
2023-04-12T22:12:39.809Z,65.60
2023-04-12T22:15:15.189Z,65.71
2023-04-12T22:17:45.283Z,65.65
2023-04-12T22:20:18.833Z,66.24
2023-04-12T22:22:48.527Z,66.49
2023-04-12T22:25:24.783Z,66.22
2023-04-12T22:27:57.883Z,66.16
2023-04-12T22:30:27.247Z,66.16
2023-04-12T22:32:58.093Z,65.69
2023-04-12T22:35:40.703Z,65.77
2023-04-12T22:38:12.413Z,66.10
2023-04-12T22:40:46.288Z,65.74
2023-04-12T22:43:25.841Z,65.93
2023-04-12T22:46:02.190Z,66.23
2023-04-12T22:48:33.548Z,66.48
2023-04-12T22:51:09.976Z,66.81
2023-04-12T22:53:41.230Z,66.75
2023-04-12T22:56:16.009Z,66.76
2023-04-12T22:58:50.180Z,66.57
2023-04-12T23:01:22.052Z,66.67
2023-04-12T23:03:51.187Z,66.75
2023-04-12T23:06:25.777Z,67.27
2023-04-12T23:09:02.563Z,67.18
2023-04-12T23:11:35.026Z,67.22
2023-04-12T23:14:04.824Z,67.91
2023-04-12T23:16:43.591Z,67.61
2023-04-12T23:19:14.920Z,67.32
2023-04-12T23:21:55.050Z,67.63
2023-04-12T23:24:32.470Z,67.80
2023-04-12T23:27:23.037Z,67.91
2023-04-12T23:29:52.849Z,68.67
2023-04-12T23:32:22.240Z,68.64
2023-04-12T23:34:52.759Z,68.54
2023-04-12T23:37:23.826Z,68.43
2023-04-12T23:39:52.398Z,69.00
2023-04-12T23:42:31.885Z,68.64
2023-04-12T23:45:06.057Z,69.01
2023-04-12T23:47:40.647Z,68.97
2023-04-12T23:50:18.449Z,69.09
2023-04-12T23:52:50.058Z,69.03
2023-04-12T23:55:23.371Z,69.27
2023-04-12T23:58:01.642Z,68.98
